首页
METAR-TAF:

METAR-TAF

机场 :

毕尔巴鄂, 西班牙

纬度: 43-18N, 经度: 002-56W, 海拔: 42米

当前天气观测

该预报发布于29分钟前的14:30 UTC
风速12节,风向西转西北,在西北转西北之间变化
温度 29°C
湿度 62%
气压 1018 hPa
能见度10公里或以上
1500米以下无云,无积雨云

METAR: LEBB 221430Z 30012KT 260V340 CAVOK 29/21 Q1018 NOSIG

时间: 16:59 (14:59 UTC)

预报

该预报发布于1小时和29分钟前的13:30 UTC
预报有效从22日的 13点(UTC)到 23日的 12点(UTC)
风速10节,风向东转东北
能见度10公里或以上
1500米以下无云,无积雨云
短暂存在
从 22日的 13点(UTC)到 22日的 20点(UTC)
风速10节,风向西转西北
成为
从 22日的 17点(UTC)到 22日的 18点(UTC)
风速5节,风向多变
几率 30% :
短暂存在
从 23日的 00点(UTC)到 23日的 02点(UTC)
散云层高于3000英尺, 积雨云.
几率 30% :
短暂存在
从 23日的 00点(UTC)到 23日的 04点(UTC)
能見度: 3000
轻雾
成为
从 23日的 06点(UTC)到 23日的 08点(UTC)
风速10节,风向

TAF: LEBB 221330Z 2213/2312 06010KT CAVOK TX42/2312Z TN21/2304Z TEMPO 2213/2220 30010KT BECMG 2217/2218 VRB05KT PROB30 TEMPO 2300/2302 SCT030CB PROB30 TEMPO 2300/2304 3000 BR BECMG 2306/2308 18010KT

超过4000个机场的气象观测和天气预报(METAR&TAF报告)。

可查询的气象台以黄色和红色小点在地图上表示。

将鼠标移到小点上方,可查看气象台名称。

然后点击查看天气观测和预报。

如需切换地图:点击带黑十字的绿色按钮放大地图;点击带横线的绿色按钮缩小地图;或者点击绿色箭头查看邻近地区的地图。


METAR-TAF: